createdAt,value
2018-03-31T00:02:15.426Z,7.55
2018-03-31T00:04:41.185Z,7.52
2018-03-31T00:07:07.004Z,7.60
2018-03-31T00:09:32.753Z,7.57
2018-03-31T00:11:58.485Z,7.56
2018-03-31T00:14:24.195Z,7.53
2018-03-31T00:16:49.960Z,7.56
2018-03-31T00:19:15.861Z,7.56
2018-03-31T00:21:41.716Z,7.59
2018-03-31T00:24:07.453Z,7.55
2018-03-31T00:26:33.208Z,7.57
2018-03-31T00:28:59.017Z,7.77
2018-03-31T00:31:24.754Z,7.69
2018-03-31T00:33:50.489Z,7.57
2018-03-31T00:36:16.230Z,7.48
2018-03-31T00:38:42.047Z,7.48
2018-03-31T00:41:07.841Z,7.52
2018-03-31T00:43:33.653Z,7.53
2018-03-31T00:45:59.420Z,7.50
2018-03-31T00:48:25.137Z,7.52
2018-03-31T00:50:50.900Z,7.53
2018-03-31T00:53:16.630Z,7.55
2018-03-31T00:55:42.375Z,7.55
2018-03-31T00:58:08.137Z,7.55
2018-03-31T01:00:33.991Z,7.56
2018-03-31T01:02:59.773Z,7.54
2018-03-31T01:05:25.531Z,7.60
2018-03-31T01:07:51.346Z,7.60
2018-03-31T01:10:17.101Z,7.52
2018-03-31T01:12:42.835Z,7.55
2018-03-31T01:15:08.589Z,7.56
2018-03-31T01:17:34.337Z,7.53
2018-03-31T01:20:00.150Z,7.53
2018-03-31T01:22:25.898Z,7.53
2018-03-31T01:24:51.633Z,7.58
2018-03-31T01:27:17.361Z,7.52
2018-03-31T01:29:43.164Z,7.51
2018-03-31T01:32:08.945Z,7.41
2018-03-31T01:34:34.690Z,7.44
2018-03-31T01:37:00.444Z,7.49
2018-03-31T01:39:26.197Z,7.77
2018-03-31T01:41:51.971Z,7.69
2018-03-31T01:44:17.790Z,7.64
2018-03-31T01:46:43.625Z,7.69
2018-03-31T01:49:09.421Z,7.72
2018-03-31T01:51:35.148Z,7.80
2018-03-31T01:54:00.929Z,7.88
2018-03-31T01:56:26.642Z,7.78
2018-03-31T01:58:52.389Z,7.68
2018-03-31T02:01:18.208Z,7.66
2018-03-31T02:03:43.957Z,7.54
2018-03-31T02:06:09.682Z,7.62
2018-03-31T02:08:35.477Z,7.71
2018-03-31T02:11:01.238Z,7.71
2018-03-31T02:13:27.107Z,7.46
2018-03-31T02:15:52.866Z,7.17
2018-03-31T02:18:18.670Z,7.26
2018-03-31T02:20:44.512Z,7.36
2018-03-31T02:23:10.255Z,7.24
2018-03-31T02:25:36.033Z,7.19
2018-03-31T02:28:01.792Z,7.29
2018-03-31T02:30:27.587Z,7.41
2018-03-31T02:32:53.348Z,7.58
2018-03-31T02:35:19.136Z,7.63
2018-03-31T02:37:44.948Z,7.62
2018-03-31T02:40:10.709Z,7.55
2018-03-31T02:42:36.521Z,7.49
2018-03-31T02:45:02.458Z,7.43
2018-03-31T02:47:28.214Z,7.40
2018-03-31T02:49:53.965Z,7.40
2018-03-31T02:52:19.867Z,7.47
2018-03-31T02:54:45.620Z,7.53
2018-03-31T02:57:11.439Z,7.54
2018-03-31T02:59:37.235Z,7.51
2018-03-31T03:02:02.983Z,7.52
2018-03-31T03:04:28.728Z,7.52
2018-03-31T03:06:54.466Z,7.47
2018-03-31T03:09:20.225Z,7.44
2018-03-31T03:11:45.934Z,7.30
2018-03-31T03:14:11.717Z,7.48
2018-03-31T03:16:37.470Z,7.61
2018-03-31T03:19:03.223Z,7.71
2018-03-31T03:21:29.006Z,7.63
2018-03-31T03:23:54.794Z,7.55
2018-03-31T03:26:20.534Z,7.58
2018-03-31T03:28:46.522Z,7.45
2018-03-31T03:31:12.270Z,7.51
2018-03-31T03:33:38.012Z,7.46
2018-03-31T03:36:03.794Z,7.49
2018-03-31T03:38:30.207Z,7.42
2018-03-31T03:40:56.083Z,7.33
2018-03-31T03:43:21.910Z,7.31
2018-03-31T03:45:47.736Z,7.34
2018-03-31T03:48:13.486Z,7.34
2018-03-31T03:50:39.201Z,7.28
2018-03-31T03:53:04.981Z,7.28
2018-03-31T03:55:30.720Z,7.23
2018-03-31T03:57:56.465Z,7.09
2018-03-31T04:00:22.191Z,7.06
2018-03-31T04:02:47.909Z,7.21
2018-03-31T04:05:13.672Z,7.28
2018-03-31T04:07:39.521Z,7.34
2018-03-31T04:10:05.346Z,7.21
2018-03-31T04:12:31.161Z,7.25
2018-03-31T04:14:56.975Z,7.19
2018-03-31T04:17:22.701Z,7.22
2018-03-31T04:19:48.509Z,7.24
2018-03-31T04:22:14.234Z,7.24
2018-03-31T04:24:40.027Z,7.19
2018-03-31T04:27:05.797Z,6.99
2018-03-31T04:29:31.588Z,6.81
2018-03-31T04:31:57.377Z,6.68
2018-03-31T04:34:23.157Z,6.68
2018-03-31T04:36:48.933Z,6.72
2018-03-31T04:39:14.730Z,6.56
2018-03-31T04:41:40.479Z,6.91
2018-03-31T04:44:06.368Z,6.87
2018-03-31T04:46:32.177Z,6.81
2018-03-31T04:48:57.960Z,6.80
2018-03-31T04:51:23.756Z,7.18
2018-03-31T04:53:49.532Z,7.24
2018-03-31T04:56:15.794Z,7.24
2018-03-31T04:58:41.529Z,7.19
2018-03-31T05:01:07.344Z,7.12
2018-03-31T05:03:33.108Z,7.08
2018-03-31T05:05:58.847Z,6.98
2018-03-31T05:08:24.595Z,6.96
2018-03-31T05:10:50.374Z,6.93
2018-03-31T05:13:16.141Z,6.90
2018-03-31T05:15:41.925Z,6.87
2018-03-31T05:18:07.758Z,6.84
2018-03-31T05:20:33.522Z,6.84
2018-03-31T05:22:59.256Z,6.68
2018-03-31T05:25:25.058Z,6.83
2018-03-31T05:27:50.817Z,6.94
2018-03-31T05:30:16.587Z,6.92
2018-03-31T05:32:42.370Z,6.98
2018-03-31T05:35:08.129Z,7.05
2018-03-31T05:37:33.886Z,7.00
2018-03-31T05:39:59.717Z,6.96
2018-03-31T05:42:25.630Z,6.95
2018-03-31T05:44:51.501Z,6.92
2018-03-31T05:47:17.238Z,6.92
2018-03-31T05:49:43.004Z,6.98
2018-03-31T05:52:08.717Z,6.97
2018-03-31T05:54:34.445Z,6.95
2018-03-31T05:57:00.187Z,7.02
2018-03-31T05:59:25.925Z,7.04
2018-03-31T06:01:51.693Z,7.01
2018-03-31T06:04:17.464Z,7.05
2018-03-31T06:06:43.266Z,7.09
2018-03-31T06:09:09.010Z,7.10
2018-03-31T06:11:34.802Z,7.18
2018-03-31T06:14:00.585Z,7.03
2018-03-31T06:16:26.384Z,7.21
2018-03-31T06:18:52.285Z,7.20
2018-03-31T06:21:18.090Z,7.13
2018-03-31T06:23:43.906Z,7.24
2018-03-31T06:26:09.662Z,7.12
2018-03-31T06:28:35.497Z,7.20
2018-03-31T06:31:01.257Z,7.21
2018-03-31T06:33:27.049Z,7.19
2018-03-31T06:35:52.792Z,7.24
2018-03-31T06:38:18.561Z,7.26
2018-03-31T06:40:44.310Z,7.22
2018-03-31T06:43:10.062Z,7.22
2018-03-31T06:45:35.813Z,7.17
2018-03-31T06:48:01.533Z,7.19
2018-03-31T06:50:27.270Z,7.18
2018-03-31T06:52:53.021Z,7.29
2018-03-31T06:55:18.784Z,7.29
2018-03-31T06:57:44.502Z,7.33
2018-03-31T07:00:10.342Z,7.28
2018-03-31T07:02:36.121Z,7.29
2018-03-31T07:05:01.866Z,7.29
2018-03-31T07:07:27.689Z,7.28
2018-03-31T07:09:53.490Z,7.36
2018-03-31T07:12:19.264Z,7.33
2018-03-31T07:14:44.981Z,7.32
2018-03-31T07:17:10.744Z,7.40
2018-03-31T07:19:36.460Z,7.44
2018-03-31T07:22:02.308Z,7.47
2018-03-31T07:24:28.049Z,7.44
2018-03-31T07:26:53.806Z,7.61
2018-03-31T07:29:19.550Z,7.69
2018-03-31T07:31:45.334Z,7.69
2018-03-31T07:34:11.077Z,7.71
2018-03-31T07:36:36.805Z,7.68
2018-03-31T07:39:02.628Z,7.63
2018-03-31T07:41:28.409Z,7.67
2018-03-31T07:43:54.157Z,7.75
2018-03-31T07:46:19.917Z,7.85
2018-03-31T07:48:45.674Z,7.82
2018-03-31T07:51:11.463Z,7.84
2018-03-31T07:53:37.183Z,7.90
2018-03-31T07:56:02.957Z,7.91
2018-03-31T07:58:28.750Z,7.82
2018-03-31T08:00:54.511Z,7.79
2018-03-31T08:03:20.246Z,7.75
2018-03-31T08:05:46.062Z,7.83
2018-03-31T08:08:11.805Z,7.85
2018-03-31T08:10:37.557Z,7.79
2018-03-31T08:13:03.327Z,7.77
2018-03-31T08:15:29.086Z,7.70
2018-03-31T08:17:54.864Z,7.56
2018-03-31T08:20:20.633Z,7.54
2018-03-31T08:22:46.523Z,7.55
2018-03-31T08:25:12.241Z,7.63
2018-03-31T08:27:38.013Z,7.75
2018-03-31T08:30:03.890Z,7.92
2018-03-31T08:32:29.623Z,7.94
2018-03-31T08:34:55.431Z,7.85
2018-03-31T08:37:21.167Z,7.93
2018-03-31T08:39:46.902Z,7.81
2018-03-31T08:42:12.665Z,7.79
2018-03-31T08:44:38.526Z,7.57
2018-03-31T08:47:04.313Z,7.43
2018-03-31T08:49:30.058Z,7.57
2018-03-31T08:51:55.805Z,7.33
2018-03-31T08:54:21.540Z,7.53
2018-03-31T08:56:47.305Z,7.50
2018-03-31T08:59:13.057Z,7.74
2018-03-31T09:01:38.853Z,8.02
2018-03-31T09:04:04.613Z,8.07
2018-03-31T09:06:30.374Z,8.14
2018-03-31T09:08:56.154Z,8.20
2018-03-31T09:11:21.910Z,7.99
2018-03-31T09:13:47.656Z,7.91
2018-03-31T09:16:13.401Z,8.09
2018-03-31T09:18:39.158Z,8.21
2018-03-31T09:21:04.913Z,8.24
2018-03-31T09:23:30.666Z,8.28
2018-03-31T09:25:56.425Z,8.24
2018-03-31T09:28:22.204Z,8.25
2018-03-31T09:30:47.955Z,8.30
2018-03-31T09:33:13.721Z,8.22
2018-03-31T09:35:39.510Z,8.30
2018-03-31T09:38:05.306Z,8.44
2018-03-31T09:40:31.040Z,8.29
2018-03-31T09:42:56.803Z,8.34
2018-03-31T09:45:22.663Z,8.36
2018-03-31T09:47:48.481Z,8.26
2018-03-31T09:50:14.329Z,8.24
2018-03-31T09:52:40.078Z,8.25
2018-03-31T09:55:05.855Z,8.24
2018-03-31T09:57:31.569Z,8.24
2018-03-31T09:59:57.330Z,8.30
2018-03-31T10:02:23.073Z,8.34
2018-03-31T10:04:48.865Z,8.34
2018-03-31T10:07:14.625Z,8.41
2018-03-31T10:09:40.361Z,8.54
2018-03-31T10:12:06.106Z,8.54
2018-03-31T10:14:31.854Z,8.58
2018-03-31T10:16:57.573Z,8.54
2018-03-31T10:19:23.312Z,8.49
2018-03-31T10:21:49.066Z,8.46
2018-03-31T10:24:14.822Z,8.46
2018-03-31T10:26:40.621Z,8.55
2018-03-31T10:29:06.333Z,8.67
2018-03-31T10:31:32.081Z,8.88
2018-03-31T10:33:57.878Z,9.18
2018-03-31T10:36:23.635Z,9.24
2018-03-31T10:38:49.444Z,9.38
2018-03-31T10:41:15.187Z,9.61
2018-03-31T10:43:41.000Z,9.28
2018-03-31T10:46:06.746Z,9.56
2018-03-31T10:48:32.572Z,9.65
2018-03-31T10:50:58.385Z,9.76
2018-03-31T10:53:24.160Z,9.77
2018-03-31T10:55:49.930Z,9.93
2018-03-31T10:58:15.774Z,9.61
2018-03-31T11:00:41.524Z,9.67
2018-03-31T11:03:07.307Z,9.66
2018-03-31T11:05:33.128Z,9.59
2018-03-31T11:07:58.982Z,9.69
2018-03-31T11:10:24.748Z,9.30
2018-03-31T11:12:50.561Z,9.57
2018-03-31T11:15:16.338Z,9.49
2018-03-31T11:17:42.089Z,9.50
2018-03-31T11:20:07.833Z,9.47
2018-03-31T11:22:33.577Z,9.36
2018-03-31T11:24:59.524Z,9.22
2018-03-31T11:27:25.297Z,9.39
2018-03-31T11:29:51.049Z,9.50
2018-03-31T11:32:16.788Z,9.34
2018-03-31T11:34:42.590Z,9.14
2018-03-31T11:37:08.325Z,9.14
2018-03-31T11:39:34.094Z,9.18
2018-03-31T11:41:59.836Z,9.19
2018-03-31T11:44:25.671Z,9.48
2018-03-31T11:46:51.463Z,9.38
2018-03-31T11:49:17.197Z,9.31
2018-03-31T11:51:42.897Z,9.35
2018-03-31T11:54:08.630Z,9.46
2018-03-31T11:56:34.409Z,9.47
2018-03-31T11:59:00.171Z,9.61
2018-03-31T12:01:25.946Z,9.92
2018-03-31T12:03:51.857Z,10.14
2018-03-31T12:06:17.605Z,10.33
2018-03-31T12:08:43.400Z,11.00
2018-03-31T12:11:09.142Z,10.68
2018-03-31T12:13:34.885Z,10.97
2018-03-31T12:16:00.690Z,11.16
2018-03-31T12:18:26.823Z,10.73
2018-03-31T12:20:52.636Z,10.49
2018-03-31T12:23:18.445Z,10.21
2018-03-31T12:25:44.222Z,9.99
2018-03-31T12:28:09.983Z,9.94
2018-03-31T12:30:35.861Z,10.02
2018-03-31T12:33:01.668Z,9.88
2018-03-31T12:35:27.444Z,9.68
2018-03-31T12:37:53.251Z,9.78
2018-03-31T12:40:19.066Z,9.70
2018-03-31T12:42:44.798Z,9.70
2018-03-31T12:45:10.547Z,9.75
2018-03-31T12:47:36.309Z,9.78
2018-03-31T12:50:02.108Z,9.81
2018-03-31T12:52:27.943Z,9.82
2018-03-31T12:54:53.726Z,9.75
2018-03-31T12:57:19.547Z,9.77
2018-03-31T12:59:45.347Z,9.79
2018-03-31T13:02:11.078Z,9.72
2018-03-31T13:04:36.953Z,9.80
2018-03-31T13:07:03.075Z,9.83
2018-03-31T13:09:28.827Z,9.98
2018-03-31T13:11:54.582Z,9.52
2018-03-31T13:14:20.426Z,9.42
2018-03-31T13:16:46.258Z,9.46
2018-03-31T13:19:12.038Z,9.63
2018-03-31T13:21:37.821Z,9.56
2018-03-31T13:24:03.582Z,9.61
2018-03-31T13:26:29.359Z,9.59
2018-03-31T13:28:55.142Z,9.61
2018-03-31T13:31:20.925Z,9.37
2018-03-31T13:33:46.684Z,9.49
2018-03-31T13:36:12.453Z,9.56
2018-03-31T13:38:38.194Z,9.77
2018-03-31T13:41:03.974Z,9.72
2018-03-31T13:43:29.753Z,9.64
2018-03-31T13:45:55.547Z,9.18
2018-03-31T13:48:21.355Z,9.09
2018-03-31T13:50:47.244Z,9.06
2018-03-31T13:53:12.971Z,9.06
2018-03-31T13:55:38.755Z,8.99
2018-03-31T13:58:04.510Z,8.84
2018-03-31T14:00:30.308Z,9.27
2018-03-31T14:02:56.041Z,9.46
2018-03-31T14:05:21.818Z,9.54
2018-03-31T14:07:47.591Z,9.41
2018-03-31T14:10:13.355Z,9.05
2018-03-31T14:12:39.140Z,9.16
2018-03-31T14:15:04.948Z,9.10
2018-03-31T14:17:30.710Z,8.35
2018-03-31T14:19:56.537Z,7.70
2018-03-31T14:22:22.331Z,7.45
2018-03-31T14:24:48.112Z,7.65
2018-03-31T14:27:13.892Z,7.59
2018-03-31T14:29:39.642Z,7.67
2018-03-31T14:32:05.392Z,7.55
2018-03-31T14:34:31.199Z,7.66
2018-03-31T14:36:57.017Z,7.93
2018-03-31T14:39:22.885Z,7.93
2018-03-31T14:41:48.645Z,7.79
2018-03-31T14:44:14.432Z,7.98
2018-03-31T14:46:40.171Z,7.95
2018-03-31T14:49:05.894Z,8.11
2018-03-31T14:51:31.650Z,8.09
2018-03-31T14:53:57.429Z,8.12
2018-03-31T14:56:23.193Z,8.03
2018-03-31T14:58:48.994Z,8.09
2018-03-31T15:01:14.799Z,7.90
2018-03-31T15:03:40.578Z,8.02
2018-03-31T15:06:06.329Z,7.88
2018-03-31T15:08:32.158Z,7.80
2018-03-31T15:10:57.967Z,7.76
2018-03-31T15:13:24.809Z,7.87
2018-03-31T15:15:50.642Z,7.88
2018-03-31T15:18:16.516Z,7.75
2018-03-31T15:20:42.332Z,7.89
2018-03-31T15:23:08.150Z,7.89
2018-03-31T15:25:33.970Z,8.13
2018-03-31T15:27:59.774Z,8.30
2018-03-31T15:30:25.558Z,8.21
2018-03-31T15:32:51.379Z,8.18
2018-03-31T15:35:17.117Z,8.08
2018-03-31T15:37:42.880Z,8.10
2018-03-31T15:40:08.736Z,8.06
2018-03-31T15:42:34.525Z,8.18
2018-03-31T15:45:00.331Z,8.50
2018-03-31T15:47:26.067Z,8.57
2018-03-31T15:49:51.805Z,8.76
2018-03-31T15:52:17.929Z,8.60
2018-03-31T15:54:43.673Z,8.23
2018-03-31T15:57:09.486Z,8.15
2018-03-31T15:59:35.278Z,8.20
2018-03-31T16:02:02.078Z,8.25
2018-03-31T16:04:27.834Z,7.95
2018-03-31T16:06:53.591Z,8.08
2018-03-31T16:09:19.378Z,8.15
2018-03-31T16:11:45.118Z,8.21
2018-03-31T16:14:10.921Z,8.28
2018-03-31T16:16:36.650Z,8.20
2018-03-31T16:19:02.478Z,7.93
2018-03-31T16:21:28.205Z,7.95
2018-03-31T16:23:53.949Z,7.85
2018-03-31T16:26:19.719Z,7.91
2018-03-31T16:28:45.517Z,7.91
2018-03-31T16:31:11.277Z,7.76
2018-03-31T16:33:37.020Z,7.90
2018-03-31T16:36:02.833Z,7.86
2018-03-31T16:38:28.583Z,7.79
2018-03-31T16:40:54.327Z,7.81
2018-03-31T16:43:20.121Z,7.84
2018-03-31T16:45:45.857Z,7.80
2018-03-31T16:48:11.602Z,7.89
2018-03-31T16:50:37.361Z,7.82
2018-03-31T16:53:03.123Z,7.80
2018-03-31T16:55:28.845Z,7.81
2018-03-31T16:57:54.634Z,7.74
2018-03-31T17:00:20.392Z,7.72
2018-03-31T17:02:46.182Z,7.74
2018-03-31T17:05:11.924Z,7.70
2018-03-31T17:07:37.672Z,7.82
2018-03-31T17:10:04.148Z,7.63
2018-03-31T17:12:29.921Z,7.58
2018-03-31T17:14:55.646Z,7.59
2018-03-31T17:17:21.500Z,7.54
2018-03-31T17:19:47.230Z,7.59
2018-03-31T17:22:12.949Z,7.55
2018-03-31T17:24:38.782Z,7.59
2018-03-31T17:27:04.503Z,7.69
2018-03-31T17:29:30.262Z,7.60
2018-03-31T17:31:56.007Z,7.64
2018-03-31T17:34:21.753Z,7.55
2018-03-31T17:36:47.529Z,7.56
2018-03-31T17:39:13.239Z,7.56
2018-03-31T17:41:38.969Z,7.52
2018-03-31T17:44:04.769Z,7.45
2018-03-31T17:46:30.550Z,7.48
2018-03-31T17:48:56.283Z,7.28
2018-03-31T17:51:22.046Z,7.20
2018-03-31T17:53:47.842Z,7.15
2018-03-31T17:56:13.610Z,7.17
2018-03-31T17:58:39.325Z,7.24
2018-03-31T18:01:05.101Z,7.26
2018-03-31T18:03:30.889Z,7.10
2018-03-31T18:05:56.650Z,7.04
2018-03-31T18:08:22.489Z,6.98
2018-03-31T18:10:48.290Z,7.16
2018-03-31T18:13:14.025Z,7.15
2018-03-31T18:15:39.828Z,7.24
2018-03-31T18:18:05.621Z,7.30
2018-03-31T18:20:31.383Z,7.12
2018-03-31T18:22:57.182Z,6.96
2018-03-31T18:25:22.955Z,6.95
2018-03-31T18:27:48.712Z,7.08
2018-03-31T18:30:14.449Z,7.04
2018-03-31T18:32:40.272Z,7.09
2018-03-31T18:35:06.105Z,7.04
2018-03-31T18:37:32.021Z,6.96
2018-03-31T18:39:57.772Z,7.10
2018-03-31T18:42:23.511Z,6.99
2018-03-31T18:44:49.251Z,7.05
2018-03-31T18:47:15.019Z,7.06
2018-03-31T18:49:40.780Z,6.99
2018-03-31T18:52:06.546Z,7.00
2018-03-31T18:54:32.355Z,6.90
2018-03-31T18:56:58.088Z,6.94
2018-03-31T18:59:23.855Z,6.92
2018-03-31T19:01:49.647Z,6.97
2018-03-31T19:04:15.396Z,7.01
2018-03-31T19:06:41.187Z,6.91
2018-03-31T19:09:06.973Z,6.81
2018-03-31T19:11:32.751Z,6.69
2018-03-31T19:13:58.536Z,6.38
2018-03-31T19:16:30.554Z,6.28
2018-03-31T19:18:56.315Z,6.30
2018-03-31T19:21:22.102Z,6.28
2018-03-31T19:23:47.867Z,6.13
2018-03-31T19:26:13.706Z,6.26
2018-03-31T19:28:39.529Z,6.26
2018-03-31T19:31:05.282Z,6.01
2018-03-31T19:33:31.005Z,6.19
2018-03-31T19:36:03.007Z,6.20
2018-03-31T19:38:28.757Z,6.08
2018-03-31T19:40:54.528Z,6.15
2018-03-31T19:43:20.298Z,6.06
2018-03-31T19:45:46.026Z,5.90
2018-03-31T19:48:11.766Z,5.94
2018-03-31T19:50:37.535Z,6.11
2018-03-31T19:53:03.293Z,6.08
2018-03-31T19:55:29.107Z,5.83
2018-03-31T19:57:54.892Z,5.72
2018-03-31T20:00:20.731Z,5.70
2018-03-31T20:02:46.563Z,5.56
2018-03-31T20:05:12.393Z,5.46
2018-03-31T20:07:38.133Z,5.37
2018-03-31T20:10:04.030Z,5.16
2018-03-31T20:12:29.810Z,5.45
2018-03-31T20:14:55.569Z,5.32
2018-03-31T20:17:21.308Z,5.24
2018-03-31T20:19:47.070Z,5.23
2018-03-31T20:22:13.122Z,5.28
2018-03-31T20:24:38.889Z,5.26
2018-03-31T20:27:04.644Z,5.26
2018-03-31T20:29:30.435Z,5.26
2018-03-31T20:31:56.166Z,5.26
2018-03-31T20:34:21.956Z,5.20
2018-03-31T20:36:47.741Z,5.15
2018-03-31T20:39:13.553Z,5.20
2018-03-31T20:41:39.322Z,5.08
2018-03-31T20:44:05.066Z,5.06
2018-03-31T20:46:30.829Z,5.07
2018-03-31T20:48:56.560Z,5.04
2018-03-31T20:51:22.396Z,5.00
2018-03-31T20:53:48.132Z,5.02
2018-03-31T20:56:13.928Z,4.97
2018-03-31T20:58:39.642Z,4.87
2018-03-31T21:01:05.386Z,4.86
2018-03-31T21:03:31.105Z,4.90
2018-03-31T21:05:57.159Z,4.84
2018-03-31T21:08:22.925Z,4.75
2018-03-31T21:10:48.728Z,4.65
2018-03-31T21:13:14.554Z,4.54
2018-03-31T21:15:40.293Z,4.44
2018-03-31T21:18:06.105Z,4.43
2018-03-31T21:20:31.845Z,4.35
2018-03-31T21:22:57.601Z,4.26
2018-03-31T21:25:23.333Z,4.21
2018-03-31T21:27:49.094Z,4.24
2018-03-31T21:30:14.817Z,4.21
2018-03-31T21:32:40.569Z,4.09
2018-03-31T21:35:06.298Z,4.15
2018-03-31T21:37:32.057Z,4.20
2018-03-31T21:39:57.807Z,4.00
2018-03-31T21:42:23.619Z,4.02
2018-03-31T21:44:49.405Z,3.95
2018-03-31T21:47:15.154Z,3.91
2018-03-31T21:49:40.953Z,3.78
2018-03-31T21:52:06.659Z,3.67
2018-03-31T21:54:32.417Z,3.53
2018-03-31T21:56:58.605Z,3.52
2018-03-31T21:59:24.346Z,3.52
2018-03-31T22:01:50.078Z,3.51
2018-03-31T22:04:15.818Z,3.56
2018-03-31T22:06:41.558Z,3.61
2018-03-31T22:09:07.289Z,3.62
2018-03-31T22:11:33.075Z,3.62
2018-03-31T22:14:04.958Z,3.65
2018-03-31T22:16:30.717Z,3.59
2018-03-31T22:18:56.470Z,3.55
2018-03-31T22:21:22.250Z,3.57
2018-03-31T22:23:48.034Z,3.57
2018-03-31T22:26:13.789Z,3.61
2018-03-31T22:28:39.522Z,3.60
2018-03-31T22:31:05.289Z,3.61
2018-03-31T22:33:31.042Z,3.62
2018-03-31T22:35:56.809Z,3.69
2018-03-31T22:38:22.567Z,3.67
2018-03-31T22:40:48.302Z,4.02
2018-03-31T22:43:14.122Z,3.96
2018-03-31T22:45:39.932Z,3.89
2018-03-31T22:48:05.694Z,3.78
2018-03-31T22:50:31.457Z,3.81
2018-03-31T22:52:57.217Z,3.84
2018-03-31T22:55:22.978Z,3.91
2018-03-31T22:57:48.803Z,3.79
2018-03-31T23:00:14.531Z,3.57
2018-03-31T23:02:40.342Z,3.17
2018-03-31T23:05:06.149Z,3.13
2018-03-31T23:07:31.910Z,3.10
2018-03-31T23:09:57.764Z,3.07
2018-03-31T23:12:23.601Z,3.04
2018-03-31T23:14:49.319Z,3.06
2018-03-31T23:17:15.072Z,3.15
2018-03-31T23:19:40.852Z,3.18
2018-03-31T23:22:06.686Z,3.15
2018-03-31T23:24:32.460Z,2.96
2018-03-31T23:26:58.194Z,3.06
2018-03-31T23:29:23.940Z,3.09
2018-03-31T23:31:49.888Z,2.98
2018-03-31T23:34:15.682Z,2.95
2018-03-31T23:36:41.436Z,2.87
2018-03-31T23:39:07.197Z,2.94
2018-03-31T23:41:32.989Z,2.97
2018-03-31T23:43:58.776Z,2.94
2018-03-31T23:46:24.532Z,3.07
2018-03-31T23:48:50.309Z,3.09
2018-03-31T23:51:16.105Z,3.08
2018-03-31T23:53:41.866Z,2.85
2018-03-31T23:56:07.586Z,2.98
2018-03-31T23:58:33.305Z,2.91
